sensor_id;sensor_type;location;lat;lon;timestamp;P1;durP1;ratioP1;P2;durP2;ratioP2
5965;SDS011;3009;43.224;27.976;2022-12-20T00:02:02;12.63;;;7.05;;
5965;SDS011;3009;43.224;27.976;2022-12-20T00:04:30;16.70;;;7.97;;
5965;SDS011;3009;43.224;27.976;2022-12-20T00:06:59;14.00;;;7.80;;
5965;SDS011;3009;43.224;27.976;2022-12-20T00:09:27;13.80;;;6.65;;
5965;SDS011;3009;43.224;27.976;2022-12-20T00:11:55;11.20;;;6.35;;
5965;SDS011;3009;43.224;27.976;2022-12-20T00:14:23;11.50;;;6.25;;
5965;SDS011;3009;43.224;27.976;2022-12-20T00:16:53;11.52;;;5.68;;
5965;SDS011;3009;43.224;27.976;2022-12-20T00:19:21;15.52;;;8.05;;
5965;SDS011;3009;43.224;27.976;2022-12-20T00:21:49;12.90;;;6.28;;
5965;SDS011;3009;43.224;27.976;2022-12-20T00:24:17;12.38;;;7.47;;
5965;SDS011;3009;43.224;27.976;2022-12-20T00:26:51;12.57;;;7.03;;
5965;SDS011;3009;43.224;27.976;2022-12-20T00:29:19;10.40;;;6.38;;
5965;SDS011;3009;43.224;27.976;2022-12-20T00:31:48;9.37;;;6.10;;
5965;SDS011;3009;43.224;27.976;2022-12-20T00:34:17;14.82;;;7.88;;
5965;SDS011;3009;43.224;27.976;2022-12-20T00:36:46;8.67;;;5.60;;
5965;SDS011;3009;43.224;27.976;2022-12-20T00:39:14;8.10;;;5.93;;
5965;SDS011;3009;43.224;27.976;2022-12-20T00:41:42;11.93;;;6.63;;
5965;SDS011;3009;43.224;27.976;2022-12-20T00:44:10;14.20;;;6.25;;
5965;SDS011;3009;43.224;27.976;2022-12-20T00:46:39;12.05;;;7.05;;
5965;SDS011;3009;43.224;27.976;2022-12-20T00:49:07;10.55;;;6.03;;
5965;SDS011;3009;43.224;27.976;2022-12-20T00:51:36;7.80;;;5.23;;
5965;SDS011;3009;43.224;27.976;2022-12-20T00:54:04;6.40;;;5.40;;
5965;SDS011;3009;43.224;27.976;2022-12-20T00:56:33;9.60;;;6.63;;
5965;SDS011;3009;43.224;27.976;2022-12-20T00:59:01;10.98;;;6.50;;
5965;SDS011;3009;43.224;27.976;2022-12-20T01:01:30;14.25;;;8.10;;
5965;SDS011;3009;43.224;27.976;2022-12-20T01:04:00;18.73;;;7.53;;
5965;SDS011;3009;43.224;27.976;2022-12-20T01:06:29;5.90;;;4.33;;
5965;SDS011;3009;43.224;27.976;2022-12-20T01:08:59;12.88;;;6.15;;
5965;SDS011;3009;43.224;27.976;2022-12-20T01:11:29;13.70;;;7.03;;
5965;SDS011;3009;43.224;27.976;2022-12-20T01:13:59;8.38;;;5.63;;
5965;SDS011;3009;43.224;27.976;2022-12-20T01:16:29;13.40;;;8.00;;
5965;SDS011;3009;43.224;27.976;2022-12-20T01:19:01;15.80;;;8.50;;
5965;SDS011;3009;43.224;27.976;2022-12-20T01:21:30;12.43;;;7.30;;
5965;SDS011;3009;43.224;27.976;2022-12-20T01:23:59;11.13;;;6.80;;
5965;SDS011;3009;43.224;27.976;2022-12-20T01:26:28;11.40;;;6.15;;
5965;SDS011;3009;43.224;27.976;2022-12-20T01:28:57;12.02;;;6.95;;
5965;SDS011;3009;43.224;27.976;2022-12-20T01:31:27;10.18;;;5.35;;
5965;SDS011;3009;43.224;27.976;2022-12-20T01:33:58;10.75;;;6.90;;
5965;SDS011;3009;43.224;27.976;2022-12-20T01:36:27;11.77;;;6.75;;
5965;SDS011;3009;43.224;27.976;2022-12-20T01:38:57;10.30;;;6.55;;
5965;SDS011;3009;43.224;27.976;2022-12-20T01:41:28;10.73;;;6.70;;
5965;SDS011;3009;43.224;27.976;2022-12-20T01:43:59;9.75;;;6.57;;
5965;SDS011;3009;43.224;27.976;2022-12-20T01:46:29;10.95;;;6.70;;
5965;SDS011;3009;43.224;27.976;2022-12-20T01:48:59;12.60;;;7.30;;
5965;SDS011;3009;43.224;27.976;2022-12-20T01:51:33;15.50;;;7.80;;
5965;SDS011;3009;43.224;27.976;2022-12-20T01:54:04;16.37;;;6.90;;
5965;SDS011;3009;43.224;27.976;2022-12-20T01:56:38;12.18;;;7.50;;
5965;SDS011;3009;43.224;27.976;2022-12-20T01:59:10;14.85;;;7.35;;
5965;SDS011;3009;43.224;27.976;2022-12-20T02:01:39;12.95;;;6.93;;
5965;SDS011;3009;43.224;27.976;2022-12-20T02:04:08;11.98;;;7.40;;
5965;SDS011;3009;43.224;27.976;2022-12-20T02:06:37;10.55;;;6.32;;
5965;SDS011;3009;43.224;27.976;2022-12-20T02:09:05;14.40;;;7.30;;
5965;SDS011;3009;43.224;27.976;2022-12-20T02:11:52;19.10;;;9.07;;
5965;SDS011;3009;43.224;27.976;2022-12-20T02:14:35;18.17;;;8.88;;
5965;SDS011;3009;43.224;27.976;2022-12-20T02:17:16;11.05;;;6.85;;
5965;SDS011;3009;43.224;27.976;2022-12-20T02:20:09;15.50;;;7.33;;
5965;SDS011;3009;43.224;27.976;2022-12-20T02:29:34;9.98;;;6.30;;
5965;SDS011;3009;43.224;27.976;2022-12-20T02:32:08;18.33;;;9.07;;
5965;SDS011;3009;43.224;27.976;2022-12-20T02:34:41;9.57;;;6.53;;
5965;SDS011;3009;43.224;27.976;2022-12-20T02:37:10;11.45;;;7.43;;
5965;SDS011;3009;43.224;27.976;2022-12-20T02:39:39;10.45;;;7.28;;
5965;SDS011;3009;43.224;27.976;2022-12-20T02:42:09;8.80;;;5.70;;
5965;SDS011;3009;43.224;27.976;2022-12-20T02:44:39;8.53;;;5.50;;
5965;SDS011;3009;43.224;27.976;2022-12-20T02:47:29;9.75;;;5.50;;
5965;SDS011;3009;43.224;27.976;2022-12-20T02:50:01;10.27;;;6.20;;
5965;SDS011;3009;43.224;27.976;2022-12-20T02:52:30;14.67;;;7.30;;
5965;SDS011;3009;43.224;27.976;2022-12-20T02:55:00;14.37;;;5.63;;
5965;SDS011;3009;43.224;27.976;2022-12-20T02:57:31;12.40;;;5.57;;
5965;SDS011;3009;43.224;27.976;2022-12-20T03:00:05;10.53;;;6.17;;
5965;SDS011;3009;43.224;27.976;2022-12-20T03:02:38;8.83;;;4.90;;
5965;SDS011;3009;43.224;27.976;2022-12-20T03:05:25;13.90;;;7.73;;
5965;SDS011;3009;43.224;27.976;2022-12-20T03:07:54;10.70;;;6.67;;
5965;SDS011;3009;43.224;27.976;2022-12-20T03:10:22;17.23;;;7.23;;
5965;SDS011;3009;43.224;27.976;2022-12-20T03:12:51;12.53;;;6.63;;
5965;SDS011;3009;43.224;27.976;2022-12-20T03:15:19;16.63;;;8.40;;
5965;SDS011;3009;43.224;27.976;2022-12-20T03:17:48;13.00;;;5.70;;
5965;SDS011;3009;43.224;27.976;2022-12-20T03:20:17;9.73;;;5.37;;
5965;SDS011;3009;43.224;27.976;2022-12-20T03:22:45;9.03;;;5.70;;
5965;SDS011;3009;43.224;27.976;2022-12-20T03:25:13;13.03;;;7.00;;
5965;SDS011;3009;43.224;27.976;2022-12-20T03:27:41;8.53;;;5.67;;
5965;SDS011;3009;43.224;27.976;2022-12-20T03:30:10;9.13;;;6.17;;
5965;SDS011;3009;43.224;27.976;2022-12-20T03:32:39;8.27;;;5.80;;
5965;SDS011;3009;43.224;27.976;2022-12-20T03:35:09;11.17;;;6.03;;
5965;SDS011;3009;43.224;27.976;2022-12-20T03:37:37;8.23;;;5.13;;
5965;SDS011;3009;43.224;27.976;2022-12-20T03:40:06;12.80;;;5.80;;
5965;SDS011;3009;43.224;27.976;2022-12-20T03:42:35;10.77;;;6.10;;
5965;SDS011;3009;43.224;27.976;2022-12-20T03:45:04;7.73;;;5.53;;
5965;SDS011;3009;43.224;27.976;2022-12-20T03:47:34;6.70;;;5.07;;
5965;SDS011;3009;43.224;27.976;2022-12-20T03:50:03;7.80;;;4.57;;
5965;SDS011;3009;43.224;27.976;2022-12-20T03:52:34;10.43;;;6.97;;
5965;SDS011;3009;43.224;27.976;2022-12-20T03:55:03;8.77;;;5.37;;
5965;SDS011;3009;43.224;27.976;2022-12-20T03:57:31;10.27;;;6.00;;
5965;SDS011;3009;43.224;27.976;2022-12-20T04:00:00;14.77;;;7.30;;
5965;SDS011;3009;43.224;27.976;2022-12-20T04:02:28;12.37;;;6.50;;
5965;SDS011;3009;43.224;27.976;2022-12-20T04:04:56;16.80;;;6.20;;
5965;SDS011;3009;43.224;27.976;2022-12-20T04:07:24;9.83;;;5.97;;
5965;SDS011;3009;43.224;27.976;2022-12-20T04:09:54;13.70;;;5.20;;
5965;SDS011;3009;43.224;27.976;2022-12-20T04:12:22;9.67;;;6.77;;
5965;SDS011;3009;43.224;27.976;2022-12-20T04:14:50;9.03;;;6.13;;
5965;SDS011;3009;43.224;27.976;2022-12-20T04:17:18;18.33;;;7.70;;
5965;SDS011;3009;43.224;27.976;2022-12-20T04:19:46;14.60;;;6.87;;
5965;SDS011;3009;43.224;27.976;2022-12-20T04:22:15;12.17;;;7.20;;
5965;SDS011;3009;43.224;27.976;2022-12-20T04:24:43;9.23;;;5.97;;
5965;SDS011;3009;43.224;27.976;2022-12-20T04:27:12;15.43;;;7.73;;
5965;SDS011;3009;43.224;27.976;2022-12-20T04:29:40;12.03;;;6.90;;
5965;SDS011;3009;43.224;27.976;2022-12-20T04:32:08;13.43;;;7.47;;
5965;SDS011;3009;43.224;27.976;2022-12-20T04:34:37;14.27;;;7.53;;
5965;SDS011;3009;43.224;27.976;2022-12-20T04:37:05;14.33;;;7.67;;
5965;SDS011;3009;43.224;27.976;2022-12-20T04:39:33;11.90;;;6.70;;
5965;SDS011;3009;43.224;27.976;2022-12-20T04:42:01;11.60;;;8.00;;
5965;SDS011;3009;43.224;27.976;2022-12-20T04:44:31;8.53;;;5.53;;
5965;SDS011;3009;43.224;27.976;2022-12-20T04:46:59;11.00;;;7.07;;
5965;SDS011;3009;43.224;27.976;2022-12-20T04:49:27;12.33;;;7.93;;
5965;SDS011;3009;43.224;27.976;2022-12-20T04:51:55;11.30;;;6.00;;
5965;SDS011;3009;43.224;27.976;2022-12-20T04:54:44;12.27;;;6.10;;
5965;SDS011;3009;43.224;27.976;2022-12-20T04:57:11;10.20;;;5.60;;
5965;SDS011;3009;43.224;27.976;2022-12-20T04:59:41;12.10;;;6.70;;
5965;SDS011;3009;43.224;27.976;2022-12-20T05:02:09;13.90;;;7.30;;
5965;SDS011;3009;43.224;27.976;2022-12-20T05:04:38;11.00;;;5.60;;
5965;SDS011;3009;43.224;27.976;2022-12-20T05:07:06;11.50;;;5.87;;
5965;SDS011;3009;43.224;27.976;2022-12-20T05:09:34;11.90;;;6.60;;
5965;SDS011;3009;43.224;27.976;2022-12-20T05:12:02;11.10;;;6.30;;
5965;SDS011;3009;43.224;27.976;2022-12-20T05:14:31;8.67;;;5.43;;
5965;SDS011;3009;43.224;27.976;2022-12-20T05:17:00;10.90;;;5.40;;
5965;SDS011;3009;43.224;27.976;2022-12-20T05:19:28;14.73;;;6.70;;
5965;SDS011;3009;43.224;27.976;2022-12-20T05:21:57;16.40;;;6.97;;
5965;SDS011;3009;43.224;27.976;2022-12-20T05:24:42;17.13;;;8.00;;
5965;SDS011;3009;43.224;27.976;2022-12-20T05:27:28;12.17;;;6.50;;
5965;SDS011;3009;43.224;27.976;2022-12-20T05:29:56;12.43;;;5.87;;
5965;SDS011;3009;43.224;27.976;2022-12-20T05:32:25;10.73;;;6.57;;
5965;SDS011;3009;43.224;27.976;2022-12-20T05:34:53;12.00;;;6.30;;
5965;SDS011;3009;43.224;27.976;2022-12-20T05:37:22;10.47;;;6.13;;
5965;SDS011;3009;43.224;27.976;2022-12-20T05:39:50;11.20;;;7.13;;
5965;SDS011;3009;43.224;27.976;2022-12-20T05:42:18;8.47;;;6.60;;
5965;SDS011;3009;43.224;27.976;2022-12-20T05:44:46;12.60;;;6.87;;
5965;SDS011;3009;43.224;27.976;2022-12-20T05:47:14;11.00;;;5.80;;
5965;SDS011;3009;43.224;27.976;2022-12-20T05:49:44;8.73;;;6.00;;
5965;SDS011;3009;43.224;27.976;2022-12-20T05:52:12;14.37;;;7.17;;
5965;SDS011;3009;43.224;27.976;2022-12-20T05:54:40;9.33;;;4.70;;
5965;SDS011;3009;43.224;27.976;2022-12-20T05:57:08;13.33;;;8.30;;
5965;SDS011;3009;43.224;27.976;2022-12-20T05:59:37;15.00;;;8.10;;
5965;SDS011;3009;43.224;27.976;2022-12-20T06:02:06;10.77;;;6.80;;
5965;SDS011;3009;43.224;27.976;2022-12-20T06:04:36;12.17;;;7.00;;
5965;SDS011;3009;43.224;27.976;2022-12-20T06:07:06;15.43;;;7.80;;
5965;SDS011;3009;43.224;27.976;2022-12-20T06:09:34;13.63;;;7.03;;
5965;SDS011;3009;43.224;27.976;2022-12-20T06:12:02;6.70;;;4.50;;
5965;SDS011;3009;43.224;27.976;2022-12-20T06:14:31;11.97;;;6.87;;
5965;SDS011;3009;43.224;27.976;2022-12-20T06:17:00;11.50;;;6.03;;
5965;SDS011;3009;43.224;27.976;2022-12-20T06:19:28;8.03;;;5.63;;
5965;SDS011;3009;43.224;27.976;2022-12-20T06:21:56;36.03;;;8.10;;
5965;SDS011;3009;43.224;27.976;2022-12-20T06:24:26;10.07;;;6.63;;
5965;SDS011;3009;43.224;27.976;2022-12-20T06:26:54;10.00;;;6.03;;
5965;SDS011;3009;43.224;27.976;2022-12-20T06:29:22;16.10;;;7.60;;
5965;SDS011;3009;43.224;27.976;2022-12-20T06:31:50;18.87;;;8.33;;
5965;SDS011;3009;43.224;27.976;2022-12-20T06:34:18;18.13;;;7.40;;
5965;SDS011;3009;43.224;27.976;2022-12-20T06:36:47;17.53;;;8.10;;
5965;SDS011;3009;43.224;27.976;2022-12-20T06:39:15;10.63;;;7.03;;
5965;SDS011;3009;43.224;27.976;2022-12-20T06:41:45;12.73;;;7.23;;
5965;SDS011;3009;43.224;27.976;2022-12-20T06:44:13;12.43;;;6.40;;
5965;SDS011;3009;43.224;27.976;2022-12-20T06:46:41;10.67;;;5.50;;
5965;SDS011;3009;43.224;27.976;2022-12-20T06:49:09;10.53;;;6.13;;
5965;SDS011;3009;43.224;27.976;2022-12-20T06:51:37;11.47;;;6.13;;
5965;SDS011;3009;43.224;27.976;2022-12-20T06:54:05;13.93;;;8.40;;
5965;SDS011;3009;43.224;27.976;2022-12-20T06:56:34;8.10;;;5.37;;
5965;SDS011;3009;43.224;27.976;2022-12-20T06:59:08;8.33;;;5.80;;
5965;SDS011;3009;43.224;27.976;2022-12-20T07:01:36;9.83;;;5.53;;
5965;SDS011;3009;43.224;27.976;2022-12-20T07:04:05;12.60;;;7.07;;
5965;SDS011;3009;43.224;27.976;2022-12-20T07:06:33;15.17;;;7.30;;
5965;SDS011;3009;43.224;27.976;2022-12-20T07:09:01;9.50;;;5.20;;
5965;SDS011;3009;43.224;27.976;2022-12-20T07:11:29;12.60;;;8.00;;
5965;SDS011;3009;43.224;27.976;2022-12-20T07:13:57;9.63;;;5.90;;
5965;SDS011;3009;43.224;27.976;2022-12-20T07:16:27;11.73;;;6.77;;
5965;SDS011;3009;43.224;27.976;2022-12-20T07:18:57;12.30;;;7.30;;
5965;SDS011;3009;43.224;27.976;2022-12-20T07:21:26;13.87;;;7.47;;
5965;SDS011;3009;43.224;27.976;2022-12-20T07:23:54;13.00;;;6.40;;
5965;SDS011;3009;43.224;27.976;2022-12-20T07:26:22;9.90;;;5.20;;
5965;SDS011;3009;43.224;27.976;2022-12-20T07:28:51;12.87;;;7.10;;
5965;SDS011;3009;43.224;27.976;2022-12-20T07:31:19;11.03;;;6.90;;
5965;SDS011;3009;43.224;27.976;2022-12-20T07:33:49;17.40;;;7.30;;
5965;SDS011;3009;43.224;27.976;2022-12-20T07:36:17;11.50;;;6.27;;
5965;SDS011;3009;43.224;27.976;2022-12-20T07:38:46;9.60;;;5.90;;
5965;SDS011;3009;43.224;27.976;2022-12-20T07:41:15;11.83;;;6.90;;
5965;SDS011;3009;43.224;27.976;2022-12-20T07:43:44;6.37;;;4.03;;
5965;SDS011;3009;43.224;27.976;2022-12-20T07:46:13;10.60;;;5.67;;
5965;SDS011;3009;43.224;27.976;2022-12-20T07:48:42;14.80;;;6.73;;
5965;SDS011;3009;43.224;27.976;2022-12-20T07:51:13;8.23;;;5.40;;
5965;SDS011;3009;43.224;27.976;2022-12-20T07:53:45;9.70;;;6.07;;
5965;SDS011;3009;43.224;27.976;2022-12-20T07:56:17;6.27;;;5.40;;
5965;SDS011;3009;43.224;27.976;2022-12-20T07:58:47;19.13;;;7.07;;
5965;SDS011;3009;43.224;27.976;2022-12-20T08:01:18;10.50;;;6.37;;
5965;SDS011;3009;43.224;27.976;2022-12-20T08:03:48;12.10;;;6.17;;
5965;SDS011;3009;43.224;27.976;2022-12-20T08:06:21;16.23;;;6.80;;
5965;SDS011;3009;43.224;27.976;2022-12-20T08:08:50;12.17;;;6.40;;
5965;SDS011;3009;43.224;27.976;2022-12-20T08:11:23;8.63;;;5.40;;
5965;SDS011;3009;43.224;27.976;2022-12-20T08:13:54;11.53;;;6.30;;
5965;SDS011;3009;43.224;27.976;2022-12-20T08:16:23;9.93;;;6.30;;
5965;SDS011;3009;43.224;27.976;2022-12-20T08:18:52;15.97;;;8.57;;
5965;SDS011;3009;43.224;27.976;2022-12-20T08:21:21;9.30;;;6.30;;
5965;SDS011;3009;43.224;27.976;2022-12-20T08:23:49;8.63;;;4.83;;
5965;SDS011;3009;43.224;27.976;2022-12-20T08:26:18;7.97;;;6.13;;
5965;SDS011;3009;43.224;27.976;2022-12-20T08:28:46;7.57;;;6.07;;
5965;SDS011;3009;43.224;27.976;2022-12-20T08:31:14;11.13;;;6.17;;
5965;SDS011;3009;43.224;27.976;2022-12-20T08:33:43;10.63;;;6.40;;
5965;SDS011;3009;43.224;27.976;2022-12-20T08:36:11;17.50;;;6.77;;
5965;SDS011;3009;43.224;27.976;2022-12-20T08:38:42;11.57;;;7.00;;
5965;SDS011;3009;43.224;27.976;2022-12-20T08:41:10;10.13;;;6.57;;
5965;SDS011;3009;43.224;27.976;2022-12-20T08:43:40;9.33;;;6.27;;
5965;SDS011;3009;43.224;27.976;2022-12-20T08:46:09;9.10;;;5.40;;
5965;SDS011;3009;43.224;27.976;2022-12-20T08:48:38;11.47;;;5.97;;
5965;SDS011;3009;43.224;27.976;2022-12-20T08:51:07;10.33;;;6.33;;
5965;SDS011;3009;43.224;27.976;2022-12-20T08:53:37;8.30;;;5.60;;
5965;SDS011;3009;43.224;27.976;2022-12-20T08:56:08;8.70;;;5.37;;
5965;SDS011;3009;43.224;27.976;2022-12-20T08:58:38;12.93;;;5.90;;
5965;SDS011;3009;43.224;27.976;2022-12-20T09:01:09;9.80;;;6.20;;
5965;SDS011;3009;43.224;27.976;2022-12-20T09:03:38;10.23;;;6.37;;
5965;SDS011;3009;43.224;27.976;2022-12-20T09:06:08;8.80;;;6.30;;
5965;SDS011;3009;43.224;27.976;2022-12-20T09:08:37;12.83;;;6.20;;
5965;SDS011;3009;43.224;27.976;2022-12-20T09:11:09;8.97;;;5.20;;
5965;SDS011;3009;43.224;27.976;2022-12-20T09:13:39;11.63;;;7.67;;
5965;SDS011;3009;43.224;27.976;2022-12-20T09:16:10;9.40;;;6.20;;
5965;SDS011;3009;43.224;27.976;2022-12-20T09:18:40;11.03;;;5.10;;
5965;SDS011;3009;43.224;27.976;2022-12-20T09:21:08;8.30;;;5.20;;
5965;SDS011;3009;43.224;27.976;2022-12-20T09:23:37;9.33;;;5.40;;
5965;SDS011;3009;43.224;27.976;2022-12-20T09:26:06;10.50;;;6.00;;
5965;SDS011;3009;43.224;27.976;2022-12-20T09:28:38;6.43;;;4.90;;
5965;SDS011;3009;43.224;27.976;2022-12-20T09:31:07;10.53;;;5.80;;
5965;SDS011;3009;43.224;27.976;2022-12-20T09:33:38;10.00;;;5.53;;
5965;SDS011;3009;43.224;27.976;2022-12-20T09:36:09;7.60;;;5.30;;
5965;SDS011;3009;43.224;27.976;2022-12-20T09:38:38;16.07;;;9.13;;
5965;SDS011;3009;43.224;27.976;2022-12-20T09:41:14;10.27;;;6.53;;
5965;SDS011;3009;43.224;27.976;2022-12-20T09:43:52;7.67;;;5.53;;
5965;SDS011;3009;43.224;27.976;2022-12-20T09:46:21;8.83;;;5.77;;
5965;SDS011;3009;43.224;27.976;2022-12-20T09:48:51;9.97;;;4.80;;
5965;SDS011;3009;43.224;27.976;2022-12-20T09:54:17;12.13;;;5.90;;
5965;SDS011;3009;43.224;27.976;2022-12-20T09:56:59;6.80;;;4.83;;
5965;SDS011;3009;43.224;27.976;2022-12-20T09:59:33;5.50;;;4.27;;
5965;SDS011;3009;43.224;27.976;2022-12-20T10:02:11;7.07;;;5.60;;
5965;SDS011;3009;43.224;27.976;2022-12-20T10:05:03;7.10;;;5.67;;
5965;SDS011;3009;43.224;27.976;2022-12-20T10:07:33;6.77;;;5.50;;
5965;SDS011;3009;43.224;27.976;2022-12-20T10:10:13;9.00;;;5.33;;
5965;SDS011;3009;43.224;27.976;2022-12-20T10:12:57;12.80;;;5.40;;
5965;SDS011;3009;43.224;27.976;2022-12-20T10:15:37;9.60;;;5.63;;
5965;SDS011;3009;43.224;27.976;2022-12-20T10:18:17;7.00;;;5.13;;
5965;SDS011;3009;43.224;27.976;2022-12-20T10:20:56;10.90;;;5.30;;
5965;SDS011;3009;43.224;27.976;2022-12-20T10:23:28;8.10;;;5.07;;
5965;SDS011;3009;43.224;27.976;2022-12-20T10:26:00;6.00;;;4.20;;
5965;SDS011;3009;43.224;27.976;2022-12-20T10:28:32;6.30;;;4.40;;
5965;SDS011;3009;43.224;27.976;2022-12-20T10:31:02;8.70;;;4.87;;
5965;SDS011;3009;43.224;27.976;2022-12-20T10:33:33;10.27;;;5.20;;
5965;SDS011;3009;43.224;27.976;2022-12-20T10:36:18;7.43;;;5.07;;
5965;SDS011;3009;43.224;27.976;2022-12-20T10:38:53;7.20;;;4.80;;
5965;SDS011;3009;43.224;27.976;2022-12-20T10:41:22;9.63;;;4.97;;
5965;SDS011;3009;43.224;27.976;2022-12-20T10:43:55;8.03;;;4.73;;
5965;SDS011;3009;43.224;27.976;2022-12-20T10:46:34;7.27;;;4.50;;
5965;SDS011;3009;43.224;27.976;2022-12-20T10:49:20;6.50;;;4.70;;
5965;SDS011;3009;43.224;27.976;2022-12-20T10:51:54;14.60;;;5.20;;
5965;SDS011;3009;43.224;27.976;2022-12-20T10:54:28;6.20;;;4.20;;
5965;SDS011;3009;43.224;27.976;2022-12-20T10:56:58;8.03;;;3.43;;
5965;SDS011;3009;43.224;27.976;2022-12-20T10:59:31;6.63;;;4.20;;
5965;SDS011;3009;43.224;27.976;2022-12-20T11:02:02;7.73;;;5.30;;
5965;SDS011;3009;43.224;27.976;2022-12-20T11:05:15;5.03;;;4.30;;
5965;SDS011;3009;43.224;27.976;2022-12-20T11:07:52;8.97;;;4.23;;
5965;SDS011;3009;43.224;27.976;2022-12-20T11:10:42;7.67;;;4.23;;
5965;SDS011;3009;43.224;27.976;2022-12-20T11:13:19;6.07;;;4.73;;
5965;SDS011;3009;43.224;27.976;2022-12-20T11:15:51;7.27;;;4.50;;
5965;SDS011;3009;43.224;27.976;2022-12-20T11:18:26;8.50;;;5.60;;
5965;SDS011;3009;43.224;27.976;2022-12-20T11:21:02;7.33;;;4.87;;
5965;SDS011;3009;43.224;27.976;2022-12-20T11:23:52;5.00;;;4.50;;
5965;SDS011;3009;43.224;27.976;2022-12-20T11:26:31;12.70;;;4.90;;
5965;SDS011;3009;43.224;27.976;2022-12-20T11:29:14;7.43;;;5.60;;
5965;SDS011;3009;43.224;27.976;2022-12-20T11:31:55;6.80;;;4.40;;
5965;SDS011;3009;43.224;27.976;2022-12-20T11:34:33;6.43;;;4.37;;
5965;SDS011;3009;43.224;27.976;2022-12-20T11:37:19;5.90;;;4.13;;
5965;SDS011;3009;43.224;27.976;2022-12-20T11:39:55;4.83;;;4.23;;
5965;SDS011;3009;43.224;27.976;2022-12-20T11:42:41;10.83;;;3.63;;
5965;SDS011;3009;43.224;27.976;2022-12-20T11:45:22;5.17;;;4.13;;
5965;SDS011;3009;43.224;27.976;2022-12-20T11:48:02;8.73;;;4.60;;
5965;SDS011;3009;43.224;27.976;2022-12-20T11:50:46;8.40;;;4.70;;
5965;SDS011;3009;43.224;27.976;2022-12-20T11:53:25;8.23;;;6.47;;
5965;SDS011;3009;43.224;27.976;2022-12-20T11:56:00;15.60;;;5.97;;
5965;SDS011;3009;43.224;27.976;2022-12-20T11:58:32;6.97;;;4.80;;
5965;SDS011;3009;43.224;27.976;2022-12-20T12:01:12;5.23;;;3.60;;
5965;SDS011;3009;43.224;27.976;2022-12-20T12:03:47;6.50;;;4.00;;
5965;SDS011;3009;43.224;27.976;2022-12-20T12:06:26;7.37;;;3.87;;
5965;SDS011;3009;43.224;27.976;2022-12-20T12:09:03;8.93;;;5.10;;
5965;SDS011;3009;43.224;27.976;2022-12-20T12:11:40;7.40;;;4.63;;
5965;SDS011;3009;43.224;27.976;2022-12-20T12:14:34;6.80;;;5.17;;
5965;SDS011;3009;43.224;27.976;2022-12-20T12:17:12;8.40;;;4.63;;
5965;SDS011;3009;43.224;27.976;2022-12-20T12:19:50;7.33;;;4.87;;
5965;SDS011;3009;43.224;27.976;2022-12-20T12:22:23;13.90;;;5.40;;
5965;SDS011;3009;43.224;27.976;2022-12-20T12:24:58;6.80;;;4.40;;
5965;SDS011;3009;43.224;27.976;2022-12-20T12:27:28;7.20;;;3.70;;
5965;SDS011;3009;43.224;27.976;2022-12-20T12:29:57;31.83;;;14.27;;
5965;SDS011;3009;43.224;27.976;2022-12-20T12:32:27;9.80;;;5.17;;
5965;SDS011;3009;43.224;27.976;2022-12-20T12:35:06;7.40;;;4.53;;
5965;SDS011;3009;43.224;27.976;2022-12-20T12:37:48;10.97;;;5.40;;
5965;SDS011;3009;43.224;27.976;2022-12-20T12:40:28;14.37;;;6.50;;
5965;SDS011;3009;43.224;27.976;2022-12-20T12:43:21;7.20;;;5.40;;
5965;SDS011;3009;43.224;27.976;2022-12-20T12:46:08;6.60;;;4.60;;
5965;SDS011;3009;43.224;27.976;2022-12-20T12:48:40;7.20;;;4.90;;
5965;SDS011;3009;43.224;27.976;2022-12-20T12:51:14;12.90;;;5.87;;
5965;SDS011;3009;43.224;27.976;2022-12-20T12:53:48;6.40;;;4.63;;
5965;SDS011;3009;43.224;27.976;2022-12-20T12:56:34;10.13;;;5.07;;
5965;SDS011;3009;43.224;27.976;2022-12-20T12:59:21;10.60;;;4.30;;
5965;SDS011;3009;43.224;27.976;2022-12-20T13:05:30;8.50;;;5.10;;
5965;SDS011;3009;43.224;27.976;2022-12-20T13:08:02;12.03;;;5.77;;
5965;SDS011;3009;43.224;27.976;2022-12-20T13:10:55;14.00;;;6.30;;
5965;SDS011;3009;43.224;27.976;2022-12-20T13:13:26;5.77;;;4.37;;
5965;SDS011;3009;43.224;27.976;2022-12-20T13:16:05;9.53;;;5.77;;
5965;SDS011;3009;43.224;27.976;2022-12-20T13:18:51;6.27;;;5.30;;
5965;SDS011;3009;43.224;27.976;2022-12-20T13:21:37;8.37;;;6.23;;
5965;SDS011;3009;43.224;27.976;2022-12-20T13:27:23;13.00;;;6.70;;
5965;SDS011;3009;43.224;27.976;2022-12-20T13:32:54;32.17;;;13.40;;
5965;SDS011;3009;43.224;27.976;2022-12-20T13:35:31;33.77;;;16.67;;
5965;SDS011;3009;43.224;27.976;2022-12-20T13:41:10;30.70;;;16.80;;
5965;SDS011;3009;43.224;27.976;2022-12-20T13:43:46;50.67;;;24.77;;
5965;SDS011;3009;43.224;27.976;2022-12-20T13:46:18;25.23;;;13.93;;
5965;SDS011;3009;43.224;27.976;2022-12-20T13:48:51;26.70;;;12.77;;
5965;SDS011;3009;43.224;27.976;2022-12-20T13:51:23;18.20;;;11.40;;
5965;SDS011;3009;43.224;27.976;2022-12-20T13:53:52;12.50;;;7.70;;
5965;SDS011;3009;43.224;27.976;2022-12-20T13:56:34;10.67;;;6.50;;
5965;SDS011;3009;43.224;27.976;2022-12-20T13:59:11;18.23;;;7.87;;
5965;SDS011;3009;43.224;27.976;2022-12-20T14:01:48;8.87;;;5.90;;
5965;SDS011;3009;43.224;27.976;2022-12-20T14:04:19;18.53;;;7.53;;
5965;SDS011;3009;43.224;27.976;2022-12-20T14:06:51;14.50;;;6.73;;
5965;SDS011;3009;43.224;27.976;2022-12-20T14:09:26;14.23;;;8.10;;
5965;SDS011;3009;43.224;27.976;2022-12-20T14:12:03;17.43;;;7.80;;
5965;SDS011;3009;43.224;27.976;2022-12-20T14:14:35;14.30;;;7.17;;
5965;SDS011;3009;43.224;27.976;2022-12-20T14:17:14;10.87;;;7.50;;
5965;SDS011;3009;43.224;27.976;2022-12-20T14:19:43;13.27;;;7.90;;
5965;SDS011;3009;43.224;27.976;2022-12-20T14:22:11;15.30;;;8.70;;
5965;SDS011;3009;43.224;27.976;2022-12-20T14:24:40;12.20;;;7.30;;
5965;SDS011;3009;43.224;27.976;2022-12-20T14:27:12;13.57;;;7.90;;
5965;SDS011;3009;43.224;27.976;2022-12-20T14:29:41;14.67;;;7.80;;
5965;SDS011;3009;43.224;27.976;2022-12-20T14:32:16;13.83;;;8.30;;
5965;SDS011;3009;43.224;27.976;2022-12-20T14:34:46;13.43;;;7.77;;
5965;SDS011;3009;43.224;27.976;2022-12-20T14:37:24;12.20;;;7.20;;
5965;SDS011;3009;43.224;27.976;2022-12-20T14:39:55;23.83;;;7.87;;
5965;SDS011;3009;43.224;27.976;2022-12-20T14:42:28;15.87;;;9.60;;
5965;SDS011;3009;43.224;27.976;2022-12-20T14:45:04;17.60;;;8.17;;
5965;SDS011;3009;43.224;27.976;2022-12-20T14:47:46;15.20;;;7.43;;
5965;SDS011;3009;43.224;27.976;2022-12-20T14:50:25;10.40;;;6.50;;
5965;SDS011;3009;43.224;27.976;2022-12-20T14:52:56;11.57;;;7.17;;
5965;SDS011;3009;43.224;27.976;2022-12-20T14:55:27;11.63;;;7.60;;
5965;SDS011;3009;43.224;27.976;2022-12-20T14:58:01;16.73;;;9.73;;
5965;SDS011;3009;43.224;27.976;2022-12-20T15:00:54;16.13;;;9.10;;
5965;SDS011;3009;43.224;27.976;2022-12-20T15:03:24;15.60;;;9.63;;
5965;SDS011;3009;43.224;27.976;2022-12-20T15:05:53;14.80;;;10.13;;
5965;SDS011;3009;43.224;27.976;2022-12-20T15:08:23;16.83;;;10.30;;
5965;SDS011;3009;43.224;27.976;2022-12-20T15:10:57;17.33;;;9.90;;
5965;SDS011;3009;43.224;27.976;2022-12-20T15:13:31;22.70;;;10.90;;
5965;SDS011;3009;43.224;27.976;2022-12-20T15:16:01;22.37;;;12.63;;
5965;SDS011;3009;43.224;27.976;2022-12-20T15:18:31;26.33;;;11.60;;
5965;SDS011;3009;43.224;27.976;2022-12-20T15:21:00;15.70;;;10.10;;
5965;SDS011;3009;43.224;27.976;2022-12-20T15:23:31;15.00;;;9.20;;
5965;SDS011;3009;43.224;27.976;2022-12-20T15:26:00;18.20;;;11.60;;
5965;SDS011;3009;43.224;27.976;2022-12-20T15:28:28;18.27;;;9.63;;
5965;SDS011;3009;43.224;27.976;2022-12-20T15:30:58;14.60;;;8.57;;
5965;SDS011;3009;43.224;27.976;2022-12-20T15:33:27;16.17;;;10.43;;
5965;SDS011;3009;43.224;27.976;2022-12-20T15:35:59;17.83;;;9.90;;
5965;SDS011;3009;43.224;27.976;2022-12-20T15:38:27;13.50;;;7.57;;
5965;SDS011;3009;43.224;27.976;2022-12-20T15:41:17;14.87;;;9.17;;
5965;SDS011;3009;43.224;27.976;2022-12-20T15:43:50;20.00;;;10.00;;
5965;SDS011;3009;43.224;27.976;2022-12-20T15:46:21;11.30;;;6.83;;